Time;durP1;ratioP1;P1;durP2;ratioP2;P2;SDS_P1;SDS_P2;PMS_P1;PMS_P2;Temp;Humidity;BMP_temperature;BMP_pressure;BME280_temperature;BME280_humidity;BME280_pressure;Samples;Min_cycle;Max_cycle;Signal;HPM_P1;HPM_P2
2022/08/28 00:00:14;;;;;;;;;;;;;;;26.33;54.00;99482.78;4380002;32;33655;-84
2022/08/28 00:02:45;;;;;;;;;;;;;;;26.48;54.16;99478.31;4380070;32;33761;-84
2022/08/28 00:05:13;;;;;;;;;;;;;;;26.67;53.52;99471.62;4380136;32;33968;-84
2022/08/28 00:07:42;;;;;;;;;;;;;;;26.70;53.24;99477.53;4380114;32;34229;-84
2022/08/28 00:10:15;;;;;;;;;;;;;;;26.66;53.23;99478.06;4367814;32;32409;-84
2022/08/28 00:12:45;;;;;;;;;;;;;;;26.60;53.53;99474.22;4380093;32;34337;-84
2022/08/28 00:15:15;;;;;;;;;;;;;;;26.68;53.26;99455.22;4380453;32;34215;-84
2022/08/28 00:17:45;;;;;;;;;;;;;;;26.45;54.07;99451.63;4367479;32;33774;-84
2022/08/28 00:20:13;;;;;;;;;;;;;;;25.86;55.53;99467.37;4366119;32;33878;-84
2022/08/28 00:22:41;;;;;;;;;;;;;;;25.81;55.71;99486.84;4358004;32;33029;-84
2022/08/28 00:25:09;;;;;;;;;;;;;;;26.15;54.44;99485.72;4380025;32;34299;-84
2022/08/28 00:27:51;;;;;;;;;;;;;;;26.24;54.08;99500.91;4379266;32;35220;-84
2022/08/28 00:30:41;;;;;;;;;;;;;;;26.30;53.45;99486.66;4366458;32;32611;-84
2022/08/28 00:33:11;;;;;;;;;;;;;;;25.82;54.71;99493.91;4393342;32;33282;-84
2022/08/28 00:35:44;;;;;;;;;;;;;;;25.82;54.24;99501.19;4367797;32;33202;-84
2022/08/28 00:38:12;;;;;;;;;;;;;;;25.97;53.74;99491.34;4366943;32;33180;-84
2022/08/28 00:40:41;;;;;;;;;;;;;;;25.63;54.70;99492.41;4380061;32;34015;-84
2022/08/28 00:43:32;;;;;;;;;;;;;;;25.43;55.46;99488.38;4377201;32;34619;-84
2022/08/28 00:46:01;;;;;;;;;;;;;;;25.63;54.97;99487.00;4379471;32;34192;-84
2022/08/28 00:48:28;;;;;;;;;;;;;;;25.55;55.08;99487.03;4379697;32;35042;-84
2022/08/28 00:53:42;;;;;;;;;;;;;;;25.45;54.86;99487.22;4381810;32;33965;-84
2022/08/28 00:56:11;;;;;;;;;;;;;;;25.43;54.98;99475.69;4379243;32;34002;-84
2022/08/28 00:58:40;;;;;;;;;;;;;;;25.59;54.43;99465.88;4379668;32;35432;-84
2022/08/28 01:01:08;;;;;;;;;;;;;;;25.46;54.89;99463.72;4367331;32;32249;-84
2022/08/28 01:03:36;;;;;;;;;;;;;;;25.48;54.89;99457.09;4379350;32;33888;-84
2022/08/28 01:06:03;;;;;;;;;;;;;;;25.27;55.83;99463.06;4367153;32;33458;-84
2022/08/28 01:08:32;;;;;;;;;;;;;;;25.19;56.40;99460.34;4379172;32;35191;-84
2022/08/28 01:11:00;;;;;;;;;;;;;;;25.08;56.63;99458.00;4366951;32;32933;-84
2022/08/28 01:13:29;;;;;;;;;;;;;;;25.54;55.18;99459.16;4379385;32;34779;-84
2022/08/28 01:15:57;;;;;;;;;;;;;;;25.07;56.70;99466.22;4366900;32;34273;-84
2022/08/28 01:18:26;;;;;;;;;;;;;;;25.52;55.31;99460.31;4379301;32;35123;-84
2022/08/28 01:21:00;;;;;;;;;;;;;;;25.61;55.01;99475.53;4367129;32;33996;-84
2022/08/28 01:23:38;;;;;;;;;;;;;;;25.50;55.17;99474.03;4379074;32;33985;-84
2022/08/28 01:26:06;;;;;;;;;;;;;;;25.07;56.77;99488.72;4367010;32;32853;-84
2022/08/28 01:28:38;;;;;;;;;;;;;;;25.37;55.26;99487.19;4379626;32;34012;-84
2022/08/28 01:31:07;;;;;;;;;;;;;;;25.11;55.95;99481.94;4378745;32;32319;-84
2022/08/28 01:33:35;;;;;;;;;;;;;;;25.26;54.54;99492.97;4368388;32;32542;-84
2022/08/28 01:36:09;;;;;;;;;;;;;;;24.98;54.54;99495.09;4381695;32;34273;-84
2022/08/28 01:38:37;;;;;;;;;;;;;;;25.10;54.30;99504.56;4381410;32;34516;-84
2022/08/28 01:41:06;;;;;;;;;;;;;;;24.64;54.60;99492.47;4368396;32;31987;-84
2022/08/28 01:43:33;;;;;;;;;;;;;;;25.04;53.48;99510.63;4380445;32;34914;-84
2022/08/28 01:46:03;;;;;;;;;;;;;;;24.87;54.29;99504.34;4394133;32;34251;-84
2022/08/28 01:48:32;;;;;;;;;;;;;;;24.82;54.34;99498.59;4368662;32;34420;-84
2022/08/28 01:51:00;;;;;;;;;;;;;;;24.96;54.12;99489.00;4380313;32;32933;-84
2022/08/28 01:53:28;;;;;;;;;;;;;;;24.89;54.25;99490.69;4380561;32;33672;-84
2022/08/28 01:56:00;;;;;;;;;;;;;;;24.64;55.35;99492.47;4381185;32;34740;-84
2022/08/28 01:58:28;;;;;;;;;;;;;;;24.36;56.34;99489.16;4368213;32;33699;-84
2022/08/28 02:00:57;;;;;;;;;;;;;;;24.41;56.31;99476.91;4368381;32;32978;-84
2022/08/28 02:03:27;;;;;;;;;;;;;;;24.56;56.04;99474.41;4380930;32;34901;-84
2022/08/28 02:05:54;;;;;;;;;;;;;;;24.34;56.72;99470.44;4380833;32;34091;-84
2022/08/28 02:08:22;;;;;;;;;;;;;;;24.59;55.86;99463.28;4380820;32;34977;-84
2022/08/28 02:10:51;;;;;;;;;;;;;;;24.55;56.19;99456.53;4380050;32;33907;-84
2022/08/28 02:13:18;;;;;;;;;;;;;;;24.04;58.05;99455.66;4380701;32;34638;-84
2022/08/28 02:15:46;;;;;;;;;;;;;;;24.32;56.95;99448.16;4380429;32;34150;-84
2022/08/28 02:18:14;;;;;;;;;;;;;;;24.16;57.25;99454.34;4380518;32;35116;-84
2022/08/28 02:20:42;;;;;;;;;;;;;;;24.36;56.88;99468.47;4367983;32;33330;-84
2022/08/28 02:23:09;;;;;;;;;;;;;;;24.56;56.27;99455.53;4380469;32;33280;-84
2022/08/28 02:25:37;;;;;;;;;;;;;;;24.56;55.84;99450.13;4368009;32;32909;-84
2022/08/28 02:28:04;;;;;;;;;;;;;;;24.81;55.13;99444.75;4368047;32;34691;-84
2022/08/28 02:30:32;;;;;;;;;;;;;;;24.77;55.18;99445.09;4380501;32;33416;-84
2022/08/28 02:33:00;;;;;;;;;;;;;;;25.08;54.33;99432.84;4368119;32;33057;-84
2022/08/28 02:35:30;;;;;;;;;;;;;;;24.68;55.65;99439.84;4367952;32;32807;-84
2022/08/28 02:37:59;;;;;;;;;;;;;;;24.71;55.57;99445.75;4380587;32;35058;-84
2022/08/28 02:40:28;;;;;;;;;;;;;;;24.74;55.21;99442.75;4367922;32;32964;-84
2022/08/28 02:42:56;;;;;;;;;;;;;;;24.65;56.64;99429.41;4377086;32;33937;-84
2022/08/28 02:45:23;;;;;;;;;;;;;;;24.54;57.99;99433.22;4367985;32;33932;-84
2022/08/28 02:48:00;;;;;;;;;;;;;;;24.65;57.44;99435.63;4381047;32;34451;-84
2022/08/28 02:50:28;;;;;;;;;;;;;;;24.41;57.54;99449.91;4379063;32;35343;-84
2022/08/28 02:53:03;;;;;;;;;;;;;;;24.62;57.00;99479.16;4378076;32;34984;-83
2022/08/28 02:55:32;;;;;;;;;;;;;;;24.47;57.08;99480.81;4367391;32;33356;-83
2022/08/28 02:58:00;;;;;;;;;;;;;;;24.60;56.86;99475.78;4380383;32;34421;-84
2022/08/28 03:00:29;;;;;;;;;;;;;;;24.13;58.27;99478.94;4368073;32;33468;-84
2022/08/28 03:02:57;;;;;;;;;;;;;;;24.04;58.58;99466.44;4380281;32;34289;-84
2022/08/28 03:05:25;;;;;;;;;;;;;;;23.83;59.77;99465.97;4367795;32;33362;-83
2022/08/28 03:07:58;;;;;;;;;;;;;;;23.98;59.14;99476.03;4380303;32;33910;-84
2022/08/28 03:10:26;;;;;;;;;;;;;;;23.67;60.15;99481.06;4380324;32;32359;-84
2022/08/28 03:12:54;;;;;;;;;;;;;;;23.89;59.46;99485.06;4380410;32;32563;-84
2022/08/28 03:15:21;;;;;;;;;;;;;;;23.84;59.71;99478.47;4367672;32;33256;-84
2022/08/28 03:17:49;;;;;;;;;;;;;;;23.88;59.62;99479.81;4379886;32;35033;-84
2022/08/28 03:20:17;;;;;;;;;;;;;;;24.00;59.27;99479.38;4367644;32;32352;-84
2022/08/28 03:25:31;;;;;;;;;;;;;;;23.90;59.77;99475.97;4375477;32;34320;-84
2022/08/28 03:27:58;;;;;;;;;;;;;;;23.89;60.00;99481.53;4379817;32;34070;-84
2022/08/28 03:30:26;;;;;;;;;;;;;;;23.55;61.34;99474.22;4367607;32;33562;-84
2022/08/28 03:32:53;;;;;;;;;;;;;;;23.49;61.05;99477.50;4379807;32;34416;-84
2022/08/28 03:35:21;;;;;;;;;;;;;;;23.18;61.48;99477.13;4379709;32;33573;-84
2022/08/28 03:37:48;;;;;;;;;;;;;;;23.59;59.81;99469.31;4379856;32;35074;-84
2022/08/28 03:40:16;;;;;;;;;;;;;;;23.81;59.15;99462.59;4379627;32;33425;-83
2022/08/28 03:42:44;;;;;;;;;;;;;;;24.09;58.26;99466.78;4370193;32;32988;-84
2022/08/28 03:45:20;;;;;;;;;;;;;;;24.10;58.39;99463.09;4378787;32;35004;-84
2022/08/28 03:47:47;;;;;;;;;;;;;;;24.09;58.30;99457.84;4379265;32;34193;-84
2022/08/28 03:50:17;;;;;;;;;;;;;;;24.51;56.47;99461.41;4355556;32;33344;-83
2022/08/28 03:52:46;;;;;;;;;;;;;;;24.44;56.34;99462.22;4380261;32;34170;-83
2022/08/28 03:55:14;;;;;;;;;;;;;;;24.39;56.53;99456.47;4364386;32;34055;-83
2022/08/28 03:57:41;;;;;;;;;;;;;;;24.02;58.47;99457.63;4380227;32;34182;-84
2022/08/28 04:00:12;;;;;;;;;;;;;;;24.11;58.02;99450.44;4377053;32;33485;-84
2022/08/28 04:02:40;;;;;;;;;;;;;;;23.85;58.71;99447.81;4367649;32;34021;-83
2022/08/28 04:05:08;;;;;;;;;;;;;;;23.93;57.89;99447.84;4367426;32;33190;-84
2022/08/28 04:07:38;;;;;;;;;;;;;;;23.81;58.81;99441.88;4367793;32;34263;-84
2022/08/28 04:10:08;;;;;;;;;;;;;;;23.65;59.49;99442.63;4379839;32;33899;-84
2022/08/28 04:12:37;;;;;;;;;;;;;;;23.81;58.99;99457.22;4355310;32;32978;-84
2022/08/28 04:15:06;;;;;;;;;;;;;;;23.62;59.38;99451.00;4379871;32;33486;-84
2022/08/28 04:17:39;;;;;;;;;;;;;;;23.53;59.59;99443.88;4374055;32;35158;-84
2022/08/28 04:20:07;;;;;;;;;;;;;;;23.31;60.47;99449.75;4371681;32;32350;-83
2022/08/28 04:22:36;;;;;;;;;;;;;;;23.37;60.24;99451.84;4368406;32;34592;-84
2022/08/28 04:25:04;;;;;;;;;;;;;;;23.19;60.78;99441.94;4380126;32;35032;-84
2022/08/28 04:27:32;;;;;;;;;;;;;;;23.21;60.44;99445.31;4379242;32;33752;-84
2022/08/28 04:30:00;;;;;;;;;;;;;;;23.51;59.99;99454.81;4367199;32;32231;-84
2022/08/28 04:32:28;;;;;;;;;;;;;;;23.43;60.55;99457.44;4367126;32;34103;-84
2022/08/28 04:34:55;;;;;;;;;;;;;;;23.63;59.71;99452.69;4379540;32;34709;-84
2022/08/28 04:37:22;;;;;;;;;;;;;;;23.66;59.49;99463.19;4379463;32;34748;-84
2022/08/28 04:39:55;;;;;;;;;;;;;;;23.58;59.61;99460.41;4367800;32;33349;-84
2022/08/28 04:42:24;;;;;;;;;;;;;;;23.31;60.68;99471.31;4366966;32;33604;-84
2022/08/28 04:44:59;;;;;;;;;;;;;;;23.77;59.14;99472.84;4367405;32;32412;-84
2022/08/28 04:47:27;;;;;;;;;;;;;;;23.79;59.42;99470.03;4368874;32;34265;-84
2022/08/28 04:49:54;;;;;;;;;;;;;;;24.04;58.01;99474.53;4359256;32;32895;-84
2022/08/28 04:52:24;;;;;;;;;;;;;;;24.17;57.73;99479.47;4372151;32;34488;-84
2022/08/28 04:54:53;;;;;;;;;;;;;;;24.15;57.75;99476.94;4378483;32;34642;-84
2022/08/28 04:57:22;;;;;;;;;;;;;;;24.40;57.17;99477.06;4367050;32;34385;-84
2022/08/28 04:59:55;;;;;;;;;;;;;;;24.40;57.75;99479.75;4366933;32;32743;-84
2022/08/28 05:02:23;;;;;;;;;;;;;;;24.35;58.29;99484.75;4360473;32;33976;-85
2022/08/28 05:04:52;;;;;;;;;;;;;;;24.58;57.54;99488.56;4370016;32;33233;-84
2022/08/28 05:07:20;;;;;;;;;;;;;;;24.59;58.34;99498.34;4378029;32;34735;-84
2022/08/28 05:09:51;;;;;;;;;;;;;;;24.55;58.13;99494.31;4379348;32;32557;-83
2022/08/28 05:12:18;;;;;;;;;;;;;;;24.58;57.36;99493.97;4364249;32;33977;-84
2022/08/28 05:14:46;;;;;;;;;;;;;;;24.50;58.77;99496.69;4376587;32;32859;-84
2022/08/28 05:17:14;;;;;;;;;;;;;;;24.75;57.85;99495.72;4379257;32;34330;-84
2022/08/28 05:19:57;;;;;;;;;;;;;;;24.82;56.63;99495.91;4366930;32;33410;-84
2022/08/28 05:22:27;;;;;;;;;;;;;;;24.89;56.45;99490.69;4366801;32;34662;-83
2022/08/28 05:24:55;;;;;;;;;;;;;;;25.14;55.37;99499.69;4379173;32;33941;-84
2022/08/28 05:27:24;;;;;;;;;;;;;;;24.98;57.67;99489.69;4366883;32;34201;-84
2022/08/28 05:29:53;;;;;;;;;;;;;;;25.11;57.34;99491.91;4379176;32;33268;-83
2022/08/28 05:32:29;;;;;;;;;;;;;;;25.06;57.11;99484.28;4364589;32;33917;-84
2022/08/28 05:35:00;;;;;;;;;;;;;;;25.40;56.61;99477.88;4366602;32;33331;-84
2022/08/28 05:37:28;;;;;;;;;;;;;;;25.62;55.47;99481.75;4379034;32;34399;-84
2022/08/28 05:39:58;;;;;;;;;;;;;;;25.50;54.99;99481.28;4366544;32;32465;-84
2022/08/28 05:42:27;;;;;;;;;;;;;;;25.67;54.57;99480.22;4392347;32;33920;-84
2022/08/28 05:44:59;;;;;;;;;;;;;;;25.74;53.60;99480.41;4366727;32;33373;-83
2022/08/28 05:47:31;;;;;;;;;;;;;;;25.67;53.91;99479.38;4366708;32;34812;-84
2022/08/28 05:50:02;;;;;;;;;;;;;;;25.92;53.33;99472.09;4366781;32;33198;-84
2022/08/28 05:52:33;;;;;;;;;;;;;;;25.96;52.87;99470.72;4379103;32;34262;-84
2022/08/28 05:55:01;;;;;;;;;;;;;;;26.22;51.74;99478.59;4366315;32;34439;-84
2022/08/28 05:57:29;;;;;;;;;;;;;;;25.72;52.26;99482.41;4365996;32;34210;-83
2022/08/28 05:59:59;;;;;;;;;;;;;;;26.04;51.81;99481.53;4366518;32;33909;-84
2022/08/28 06:02:28;;;;;;;;;;;;;;;26.00;51.75;99488.31;4366202;32;33816;-83
2022/08/28 06:05:02;;;;;;;;;;;;;;;25.88;51.61;99479.72;4379225;32;36033;-84
2022/08/28 06:07:32;;;;;;;;;;;;;;;25.78;51.56;99488.03;4378505;32;34800;-83
2022/08/28 06:09:59;;;;;;;;;;;;;;;25.99;52.10;99489.31;4378762;32;33647;-84
2022/08/28 06:12:27;;;;;;;;;;;;;;;25.99;51.31;99475.81;4366308;32;33906;-83
2022/08/28 06:14:54;;;;;;;;;;;;;;;26.16;50.42;99482.84;4378578;32;34284;-83
2022/08/28 06:17:24;;;;;;;;;;;;;;;26.04;51.52;99482.37;4353761;32;34371;-83
2022/08/28 06:19:53;;;;;;;;;;;;;;;26.11;50.27;99485.25;4368238;32;32466;-83
2022/08/28 06:22:23;;;;;;;;;;;;;;;26.25;50.93;99489.94;4368528;32;33070;-84
2022/08/28 06:24:52;;;;;;;;;;;;;;;26.89;49.28;99491.66;4381103;32;34348;-83
2022/08/28 06:27:22;;;;;;;;;;;;;;;26.68;49.12;99485.00;4380234;32;34592;-84
2022/08/28 06:29:51;;;;;;;;;;;;;;;26.85;49.30;99499.28;4368381;32;32452;-84
2022/08/28 06:32:20;;;;;;;;;;;;;;;27.04;49.13;99497.97;4368043;32;32986;-84
2022/08/28 06:34:48;;;;;;;;;;;;;;;27.17;48.43;99500.97;4368324;32;35011;-84
2022/08/28 06:37:16;;;;;;;;;;;;;;;27.22;47.73;99497.69;4355687;32;34096;-84
2022/08/28 06:39:44;;;;;;;;;;;;;;;27.13;48.21;99510.47;4368372;32;33725;-84
2022/08/28 06:42:13;;;;;;;;;;;;;;;27.06;48.80;99504.03;4367707;32;34772;-84
2022/08/28 06:44:41;;;;;;;;;;;;;;;27.25;48.32;99500.91;4377980;32;35006;-84
2022/08/28 06:47:16;;;;;;;;;;;;;;;27.61;47.58;99507.53;4355295;32;32820;-84
2022/08/28 06:49:53;;;;;;;;;;;;;;;28.03;46.50;99506.97;4357399;32;32295;-84
2022/08/28 06:52:24;;;;;;;;;;;;;;;27.89;46.03;99514.06;4368273;32;32718;-84
2022/08/28 06:54:53;;;;;;;;;;;;;;;28.13;45.87;99510.25;4386841;32;33900;-84
2022/08/28 06:57:24;;;;;;;;;;;;;;;27.98;46.54;99515.66;4374236;32;33305;-84
2022/08/28 06:59:59;;;;;;;;;;;;;;;28.20;46.00;99519.34;4380588;32;32226;-84
2022/08/28 07:02:34;;;;;;;;;;;;;;;28.57;44.04;99520.25;4381456;32;34026;-84
2022/08/28 07:05:07;;;;;;;;;;;;;;;28.62;43.64;99512.38;4368109;32;33166;-84
2022/08/28 07:07:37;;;;;;;;;;;;;;;28.86;43.98;99523.94;4368271;32;33258;-84
2022/08/28 07:10:11;;;;;;;;;;;;;;;28.75;46.01;99523.41;4393969;32;33949;-84
2022/08/28 07:12:43;;;;;;;;;;;;;;;28.08;46.27;99524.38;4368655;32;34190;-84
2022/08/28 07:15:21;;;;;;;;;;;;;;;28.44;44.84;99530.94;4380964;32;36030;-84
2022/08/28 07:17:50;;;;;;;;;;;;;;;28.79;44.27;99524.69;4355344;32;33181;-84
2022/08/28 07:20:18;;;;;;;;;;;;;;;28.76;44.09;99529.66;4367876;32;33505;-84
2022/08/28 07:22:50;;;;;;;;;;;;;;;28.89;44.45;99529.00;4380703;32;33930;-84
2022/08/28 07:25:26;;;;;;;;;;;;;;;28.95;43.60;99536.41;4379986;32;32951;-84
2022/08/28 07:27:55;;;;;;;;;;;;;;;29.19;43.80;99541.47;4380085;32;34200;-84
2022/08/28 07:30:23;;;;;;;;;;;;;;;29.13;46.12;99542.25;4366835;32;33599;-84
2022/08/28 07:32:57;;;;;;;;;;;;;;;29.25;46.77;99548.88;4368818;32;33573;-84
2022/08/28 07:35:33;;;;;;;;;;;;;;;29.28;46.92;99545.75;4367127;32;33370;-84
2022/08/28 07:38:02;;;;;;;;;;;;;;;29.12;47.59;99545.16;4367626;32;33112;-84
2022/08/28 07:40:32;;;;;;;;;;;;;;;29.31;47.13;99539.94;4377793;32;33809;-84
2022/08/28 07:46:02;;;;;;;;;;;;;;;29.28;47.82;99544.91;4381679;32;33160;-84
2022/08/28 07:48:34;;;;;;;;;;;;;;;29.27;47.31;99546.78;4377623;32;34659;-84
2022/08/28 07:51:03;;;;;;;;;;;;;;;28.97;47.85;99547.94;4367569;32;33243;-84
2022/08/28 07:53:30;;;;;;;;;;;;;;;29.32;47.99;99538.88;4379820;32;32592;-84
2022/08/28 07:56:04;;;;;;;;;;;;;;;29.34;47.14;99542.28;4367832;32;33592;-84
2022/08/28 07:58:41;;;;;;;;;;;;;;;29.24;45.98;99544.44;4368270;32;33304;-84
2022/08/28 08:01:11;;;;;;;;;;;;;;;29.19;47.96;99551.50;4379808;32;32720;-84
2022/08/28 08:03:46;;;;;;;;;;;;;;;29.25;47.64;99556.19;4380799;32;33903;-84
2022/08/28 08:06:18;;;;;;;;;;;;;;;29.30;46.70;99560.00;4380150;32;34043;-84
2022/08/28 08:08:52;;;;;;;;;;;;;;;29.07;47.10;99560.19;4380131;32;33226;-84
2022/08/28 08:11:20;;;;;;;;;;;;;;;29.46;45.88;99561.63;4383820;32;33986;-85
2022/08/28 08:13:52;;;;;;;;;;;;;;;29.49;46.22;99563.12;4376166;32;34046;-84
2022/08/28 08:16:37;;;;;;;;;;;;;;;29.58;46.54;99556.53;4375256;32;33427;-84
2022/08/28 08:19:09;;;;;;;;;;;;;;;29.64;44.61;99560.34;4379713;32;33495;-84
2022/08/28 08:21:38;;;;;;;;;;;;;;;29.48;44.52;99556.84;4379443;32;33605;-84
2022/08/28 08:24:07;;;;;;;;;;;;;;;29.82;44.47;99558.00;4380049;32;34221;-84
2022/08/28 08:26:40;;;;;;;;;;;;;;;30.08;43.92;99560.06;4379866;32;33801;-84
2022/08/28 08:29:20;;;;;;;;;;;;;;;30.41;42.84;99564.91;4381370;32;34327;-84
2022/08/28 08:31:56;;;;;;;;;;;;;;;30.40;43.08;99569.50;4379439;32;34267;-84
2022/08/28 08:34:26;;;;;;;;;;;;;;;30.60;42.70;99559.56;4379688;32;33250;-84
2022/08/28 08:36:55;;;;;;;;;;;;;;;30.73;43.21;99556.09;4379490;32;34298;-84
2022/08/28 08:39:23;;;;;;;;;;;;;;;31.14;44.07;99555.16;4367690;32;33168;-84
2022/08/28 08:41:55;;;;;;;;;;;;;;;30.72;41.95;99559.87;4379686;32;33257;-84
2022/08/28 08:44:29;;;;;;;;;;;;;;;31.19;40.07;99558.09;4374356;32;33196;-84
2022/08/28 08:47:10;;;;;;;;;;;;;;;31.46;40.92;99556.28;4367785;32;33498;-84
2022/08/28 08:49:46;;;;;;;;;;;;;;;31.41;40.24;99552.50;4379356;32;33319;-84
2022/08/28 08:52:28;;;;;;;;;;;;;;;31.93;38.14;99553.59;4360770;32;32716;-84
2022/08/28 08:55:17;;;;;;;;;;;;;;;31.93;38.12;99551.72;4392841;32;34482;-84
2022/08/28 08:57:48;;;;;;;;;;;;;;;31.94;37.59;99558.84;4366219;32;33090;-84
2022/08/28 09:00:18;;;;;;;;;;;;;;;31.57;37.50;99557.56;4366538;32;34531;-84
2022/08/28 09:05:41;;;;;;;;;;;;;;;31.74;38.44;99558.00;4377170;32;33318;-85
2022/08/28 09:11:03;;;;;;;;;;;;;;;31.43;39.89;99558.59;4368116;32;33096;-84
2022/08/28 09:13:39;;;;;;;;;;;;;;;31.53;39.72;99568.06;4378930;32;32081;-84
2022/08/28 09:16:14;;;;;;;;;;;;;;;31.46;39.64;99561.75;4392226;32;34760;-84
2022/08/28 09:18:47;;;;;;;;;;;;;;;31.54;39.88;99567.00;4366574;32;33509;-84
2022/08/28 09:21:25;;;;;;;;;;;;;;;31.71;38.78;99563.84;4365784;32;33229;-84
2022/08/28 09:24:02;;;;;;;;;;;;;;;31.83;39.61;99568.53;4367096;32;32504;-84
2022/08/28 09:26:49;;;;;;;;;;;;;;;31.99;38.20;99572.69;4379902;32;34615;-84
2022/08/28 09:29:23;;;;;;;;;;;;;;;32.02;37.02;99571.44;4362102;32;32813;-84
2022/08/28 09:32:22;;;;;;;;;;;;;;;31.68;39.02;99575.22;4378176;32;35957;-84
2022/08/28 09:35:09;;;;;;;;;;;;;;;31.83;38.28;99578.59;4387330;32;33332;-86
2022/08/28 09:37:37;;;;;;;;;;;;;;;31.96;38.66;99564.94;4388095;32;34174;-84
2022/08/28 09:43:25;;;;;;;;;;;;;;;32.43;36.78;99573.06;4366306;32;33252;-84
2022/08/28 09:43:27;;;;;;;;;;;;;;;32.65;34.54;99571.75;4372357;32;33109;-84
2022/08/28 09:46:18;;;;;;;;;;;;;;;32.58;35.64;99565.47;4374671;32;33345;-85
2022/08/28 09:49:07;;;;;;;;;;;;;;;32.91;35.46;99565.38;4377315;32;34934;-84
2022/08/28 09:51:38;;;;;;;;;;;;;;;32.87;36.06;99570.41;4367823;32;32843;-84
2022/08/28 09:56:59;;;;;;;;;;;;;;;32.65;37.05;99566.28;4382061;32;34405;-84
2022/08/28 09:59:30;;;;;;;;;;;;;;;32.88;35.02;99565.78;4380834;32;33487;-84
2022/08/28 10:02:22;;;;;;;;;;;;;;;33.03;34.97;99560.03;4368384;32;32927;-84
2022/08/28 10:05:02;;;;;;;;;;;;;;;32.97;35.48;99564.50;4380947;32;34290;-84
2022/08/28 10:07:37;;;;;;;;;;;;;;;32.97;35.04;99563.66;4380714;32;32331;-84
2022/08/28 10:12:53;;;;;;;;;;;;;;;32.40;37.72;99570.78;4380267;32;33557;-84
2022/08/28 10:15:31;;;;;;;;;;;;;;;32.52;37.00;99569.06;4390287;32;34058;-84
2022/08/28 10:18:02;;;;;;;;;;;;;;;32.92;34.62;99560.75;4374716;32;34924;-84
2022/08/28 10:20:45;;;;;;;;;;;;;;;32.91;34.04;99559.06;4378746;32;34045;-84
2022/08/28 10:23:20;;;;;;;;;;;;;;;33.12;34.43;99554.09;4387728;32;34270;-84
2022/08/28 10:25:56;;;;;;;;;;;;;;;32.94;32.99;99558.63;4370820;32;33222;-84
2022/08/28 10:28:25;;;;;;;;;;;;;;;32.76;34.06;99553.81;4378569;32;32377;-84
2022/08/28 10:31:06;;;;;;;;;;;;;;;32.73;33.62;99554.28;4380204;32;33385;-84
2022/08/28 10:33:42;;;;;;;;;;;;;;;32.73;34.76;99552.37;4369571;32;33139;-84
2022/08/28 10:36:18;;;;;;;;;;;;;;;32.77;33.89;99547.31;4371921;32;33437;-84
2022/08/28 10:39:18;;;;;;;;;;;;;;;32.81;34.56;99552.13;4382358;32;33401;-84
2022/08/28 10:41:56;;;;;;;;;;;;;;;33.01;33.13;99551.22;4367190;32;34910;-84
2022/08/28 10:44:26;;;;;;;;;;;;;;;32.65;35.16;99544.41;4367885;32;33545;-84
2022/08/28 10:46:54;;;;;;;;;;;;;;;32.84;34.13;99542.66;4393389;32;34163;-84
2022/08/28 10:49:34;;;;;;;;;;;;;;;33.42;34.77;99538.94;4380653;32;33608;-84
2022/08/28 10:52:13;;;;;;;;;;;;;;;33.84;33.03;99537.38;4364753;32;33951;-84
2022/08/28 10:54:50;;;;;;;;;;;;;;;33.83;33.07;99528.31;4367106;32;33853;-84
2022/08/28 10:57:39;;;;;;;;;;;;;;;33.93;32.11;99537.94;4393927;32;35082;-84
2022/08/28 11:02:56;;;;;;;;;;;;;;;33.87;32.64;99535.03;4392634;32;33994;-84
2022/08/28 11:05:35;;;;;;;;;;;;;;;33.49;32.96;99545.25;4379664;32;34200;-84
2022/08/28 11:08:15;;;;;;;;;;;;;;;33.61;33.93;99538.00;4367909;32;33608;-84
2022/08/28 11:10:48;;;;;;;;;;;;;;;33.99;31.91;99542.53;4366811;32;32441;-84
2022/08/28 11:13:36;;;;;;;;;;;;;;;33.84;32.19;99546.44;4367689;32;33818;-84
2022/08/28 11:16:10;;;;;;;;;;;;;;;33.64;33.02;99543.87;4380023;32;33484;-84
2022/08/28 11:18:47;;;;;;;;;;;;;;;34.19;32.47;99543.19;4380090;32;34744;-84
2022/08/28 11:21:25;;;;;;;;;;;;;;;33.99;30.64;99528.84;4380246;32;33615;-85
2022/08/28 11:24:07;;;;;;;;;;;;;;;34.57;31.10;99528.44;4380735;32;34256;-84
2022/08/28 11:27:11;;;;;;;;;;;;;;;34.49;30.75;99528.75;4379985;32;33149;-84
2022/08/28 11:30:06;;;;;;;;;;;;;;;34.72;31.03;99523.41;4340620;32;34206;-85
2022/08/28 11:32:37;;;;;;;;;;;;;;;34.97;30.87;99527.94;4378708;32;32377;-84
2022/08/28 11:35:14;;;;;;;;;;;;;;;34.74;30.72;99526.72;4368210;32;32819;-84
2022/08/28 11:37:44;;;;;;;;;;;;;;;34.37;30.55;99532.25;4392292;32;34583;-84
2022/08/28 11:40:17;;;;;;;;;;;;;;;34.47;29.33;99529.00;4370774;32;32983;-84
2022/08/28 11:42:49;;;;;;;;;;;;;;;34.62;30.77;99523.13;4366010;32;33554;-84
2022/08/28 11:45:21;;;;;;;;;;;;;;;35.06;29.09;99518.31;4371824;32;33932;-84
2022/08/28 11:47:55;;;;;;;;;;;;;;;35.20;30.05;99529.94;4364722;32;33171;-84
2022/08/28 11:50:30;;;;;;;;;;;;;;;35.63;30.05;99526.97;4374058;32;33381;-85
2022/08/28 11:53:09;;;;;;;;;;;;;;;35.80;26.50;99530.69;4365497;32;33113;-84
2022/08/28 11:55:49;;;;;;;;;;;;;;;35.35;27.71;99516.59;4376056;32;33721;-84
2022/08/28 11:58:27;;;;;;;;;;;;;;;35.14;27.55;99513.34;4377861;32;32826;-84
2022/08/28 12:00:56;;;;;;;;;;;;;;;34.78;28.41;99516.97;4373464;32;33320;-84
2022/08/28 12:03:46;;;;;;;;;;;;;;;34.74;29.17;99518.50;4364595;32;32085;-84
2022/08/28 12:06:15;;;;;;;;;;;;;;;34.79;28.78;99523.31;4377850;32;34035;-84
2022/08/28 12:08:51;;;;;;;;;;;;;;;34.27;30.53;99520.09;4377126;32;33991;-84
2022/08/28 12:11:38;;;;;;;;;;;;;;;34.76;30.61;99513.66;4369654;32;34130;-84
2022/08/28 12:14:27;;;;;;;;;;;;;;;34.90;29.15;99508.81;4376449;32;33243;-85
2022/08/28 12:17:04;;;;;;;;;;;;;;;34.98;29.41;99513.16;4374458;32;33341;-84
2022/08/28 12:19:36;;;;;;;;;;;;;;;34.98;28.14;99514.00;4375266;32;34069;-84
2022/08/28 12:22:23;;;;;;;;;;;;;;;34.74;30.41;99510.28;4387984;32;33109;-84
2022/08/28 12:24:58;;;;;;;;;;;;;;;35.35;27.66;99511.94;4376762;32;33637;-85
2022/08/28 12:27:34;;;;;;;;;;;;;;;35.20;28.52;99508.00;4376246;32;34572;-84
2022/08/28 12:30:02;;;;;;;;;;;;;;;34.99;28.54;99506.59;4376896;32;34143;-84
2022/08/28 12:32:31;;;;;;;;;;;;;;;35.35;29.00;99505.63;4375344;32;34125;-84
2022/08/28 12:35:01;;;;;;;;;;;;;;;35.30;28.79;99511.81;4375537;32;34142;-84
2022/08/28 12:37:34;;;;;;;;;;;;;;;35.15;29.26;99500.47;4376661;32;33036;-84
2022/08/28 12:40:22;;;;;;;;;;;;;;;35.17;29.11;99503.78;4373724;32;34070;-84
2022/08/28 12:43:04;;;;;;;;;;;;;;;35.37;29.23;99508.97;4379808;32;33129;-84
2022/08/28 12:45:53;;;;;;;;;;;;;;;35.29;30.44;99501.94;4378314;32;33251;-84
2022/08/28 12:48:21;;;;;;;;;;;;;;;35.03;30.46;99496.81;4364414;32;35007;-84
2022/08/28 12:50:57;;;;;;;;;;;;;;;35.24;31.22;99492.72;4390017;32;35049;-85
2022/08/28 12:53:46;;;;;;;;;;;;;;;35.02;31.57;99489.66;4374525;32;34109;-85
2022/08/28 12:56:18;;;;;;;;;;;;;;;34.96;31.17;99496.09;4369889;32;32726;-84
2022/08/28 12:58:47;;;;;;;;;;;;;;;34.76;33.45;99486.22;4368301;32;34176;-84
2022/08/28 13:01:29;;;;;;;;;;;;;;;34.67;32.87;99490.34;4379261;32;34101;-84
2022/08/28 13:04:03;;;;;;;;;;;;;;;34.81;32.81;99489.09;4378417;32;32726;-84
2022/08/28 13:06:36;;;;;;;;;;;;;;;34.85;33.14;99484.81;4378348;32;33265;-84
2022/08/28 13:09:20;;;;;;;;;;;;;;;34.99;32.14;99490.13;4378563;32;35798;-84
2022/08/28 13:11:52;;;;;;;;;;;;;;;35.15;31.11;99481.25;4376707;32;33710;-84
2022/08/28 13:14:36;;;;;;;;;;;;;;;34.94;31.44;99482.56;4377053;32;33557;-84
2022/08/28 13:17:09;;;;;;;;;;;;;;;34.83;31.40;99486.12;4390351;32;33809;-84
2022/08/28 13:19:44;;;;;;;;;;;;;;;34.42;31.68;99481.34;4376618;32;34035;-84
2022/08/28 13:25:28;;;;;;;;;;;;;;;34.63;32.28;99475.44;4374616;32;34732;-85
2022/08/28 13:28:12;;;;;;;;;;;;;;;34.30;33.79;99487.62;4351670;32;32141;-84
2022/08/28 13:31:00;;;;;;;;;;;;;;;34.37;33.27;99476.56;4369814;32;33752;-84
2022/08/28 13:33:30;;;;;;;;;;;;;;;34.50;33.20;99470.09;4372212;32;34682;-85
2022/08/28 13:36:18;;;;;;;;;;;;;;;34.52;33.34;99468.00;4375954;32;33471;-84
2022/08/28 13:38:49;;;;;;;;;;;;;;;34.08;33.98;99475.44;4380331;32;32652;-84
2022/08/28 13:46:38;;;;;;;;;;;;;;;34.21;34.10;99468.97;4378723;32;33798;-84